Time;durP1;ratioP1;P1;durP2;ratioP2;P2;SDS_P1;SDS_P2;PMS_P1;PMS_P2;Temp;Humidity;BMP_temperature;BMP_pressure;BME280_temperature;BME280_humidity;BME280_pressure;Samples;Min_cycle;Max_cycle;Signal;HPM_P1;HPM_P2
2023/01/17 04:07:52;;;;;;;15.30;3.38;;;1.60;99.90;;;0.90;100.00;94886.59;5012344;28;20056;-68
2023/01/17 04:10:19;;;;;;;9.63;3.42;;;1.60;99.90;;;0.92;100.00;94871.22;5019336;28;20050;-68
2023/01/17 04:12:46;;;;;;;10.18;3.10;;;1.60;99.90;;;1.01;100.00;94874.16;5021838;28;20085;-68
2023/01/17 04:15:14;;;;;;;8.32;2.70;;;1.50;99.90;;;0.88;100.00;94869.72;5008896;28;20049;-68
2023/01/17 04:17:41;;;;;;;6.65;3.17;;;1.50;99.90;;;0.87;100.00;94870.59;5025283;28;20076;-68
2023/01/17 04:20:36;;;;;;;7.78;3.53;;;1.40;99.90;;;0.90;100.00;94861.06;5009240;28;20050;-68
2023/01/17 04:23:03;;;;;;;10.27;3.72;;;1.50;99.90;;;0.77;100.00;94871.03;5007941;28;20097;-68
2023/01/17 04:25:31;;;;;;;7.93;3.15;;;1.40;99.90;;;0.79;100.00;94863.31;5023843;28;20506;-68
2023/01/17 04:27:59;;;;;;;9.65;3.55;;;1.30;99.90;;;0.78;100.00;94859.13;5017974;28;20501;-68
2023/01/17 04:30:27;;;;;;;6.88;2.22;;;1.30;99.90;;;0.78;100.00;94864.22;5025132;28;20049;-68
2023/01/17 04:32:55;;;;;;;8.10;3.75;;;1.20;99.90;;;0.77;100.00;94867.66;5019873;28;20046;-68
2023/01/17 04:35:22;;;;;;;10.25;4.05;;;1.20;99.90;;;0.80;100.00;94875.19;5021007;28;20041;-68
2023/01/17 04:37:49;;;;;;;7.38;3.60;;;1.30;99.90;;;0.91;100.00;94884.88;5017155;28;20121;-68
2023/01/17 04:40:17;;;;;;;9.63;4.75;;;1.20;99.90;;;0.76;100.00;94889.00;5025402;28;20128;-68
2023/01/17 04:42:44;;;;;;;11.43;4.65;;;1.30;99.90;;;0.91;100.00;94905.31;5018390;28;20369;-68
2023/01/17 04:45:12;;;;;;;12.57;4.20;;;1.30;99.90;;;0.96;100.00;94900.84;5015865;28;20094;-68
2023/01/17 04:47:39;;;;;;;10.40;4.13;;;1.30;99.90;;;0.91;100.00;94901.03;5017288;28;20049;-68
2023/01/17 04:50:08;;;;;;;7.57;3.38;;;1.30;99.90;;;1.07;100.00;94911.34;5013872;28;20049;-68
2023/01/17 04:52:35;;;;;;;11.90;3.60;;;1.40;99.90;;;0.84;100.00;94917.53;5017972;28;20045;-68
2023/01/17 04:55:02;;;;;;;10.30;4.03;;;1.40;99.90;;;0.89;100.00;94917.31;5014572;28;20042;-68
2023/01/17 04:57:29;;;;;;;8.10;4.10;;;1.50;99.90;;;0.82;100.00;94916.78;5024037;28;20164;-68
2023/01/17 04:59:56;;;;;;;9.85;4.63;;;1.60;99.90;;;1.06;100.00;94901.22;5019696;28;20454;-68
2023/01/17 05:02:23;;;;;;;10.52;4.13;;;1.60;99.90;;;0.92;100.00;94899.31;5016910;28;20084;-68
2023/01/17 05:04:50;;;;;;;10.27;4.07;;;1.60;99.90;;;1.02;100.00;94900.50;5015236;28;20527;-68
2023/01/17 05:07:17;;;;;;;8.13;3.45;;;1.60;99.90;;;1.09;100.00;94901.88;5018268;28;20049;-68
2023/01/17 05:09:44;;;;;;;11.00;3.40;;;1.60;99.90;;;1.00;100.00;94907.41;5021013;28;20046;-68
2023/01/17 05:12:11;;;;;;;8.65;3.15;;;1.60;99.90;;;1.01;100.00;94902.25;5019907;28;20050;-68
2023/01/17 05:14:38;;;;;;;8.32;3.78;;;1.50;99.90;;;0.87;100.00;94891.88;5019391;28;20800;-68
2023/01/17 05:17:05;;;;;;;7.63;3.30;;;1.60;99.90;;;1.01;100.00;94883.56;5015465;28;20064;-68
2023/01/17 05:19:32;;;;;;;11.40;3.95;;;1.50;99.90;;;1.07;100.00;94883.22;5019979;28;20052;-68
2023/01/17 05:22:02;;;;;;;8.18;3.92;;;1.50;99.90;;;0.75;100.00;94895.84;5010038;28;20042;-68
2023/01/17 05:24:31;;;;;;;10.02;3.80;;;1.50;99.90;;;0.77;100.00;94885.53;5011588;28;20054;-68
2023/01/17 05:27:01;;;;;;;10.20;3.83;;;1.50;99.90;;;0.87;100.00;94885.91;5012311;28;20049;-68
2023/01/17 05:29:29;;;;;;;8.23;4.50;;;1.50;99.90;;;0.78;100.00;94889.75;5014349;28;20042;-68
2023/01/17 05:31:56;;;;;;;6.57;3.50;;;1.50;99.90;;;0.94;100.00;94882.19;5014880;28;20077;-68
2023/01/17 05:34:24;;;;;;;8.73;3.80;;;1.40;99.90;;;0.95;100.00;94889.75;5020452;28;20127;-68
2023/01/17 05:36:51;;;;;;;9.95;3.75;;;1.30;99.90;;;0.78;100.00;94890.56;5024243;28;20823;-68
2023/01/17 05:39:18;;;;;;;10.55;4.53;;;1.40;99.90;;;0.95;100.00;94887.22;5016732;28;20172;-68
2023/01/17 05:41:45;;;;;;;10.40;4.25;;;1.40;99.90;;;0.89;100.00;94902.00;5017639;28;20061;-68
2023/01/17 05:44:14;;;;;;;8.38;3.65;;;1.40;99.90;;;1.09;100.00;94886.53;5013339;28;20053;-68
2023/01/17 05:46:41;;;;;;;9.07;3.83;;;1.40;99.90;;;1.18;100.00;94887.84;5021563;28;20610;-68
2023/01/17 05:49:08;;;;;;;9.60;3.83;;;1.40;99.90;;;0.93;100.00;94893.28;5021152;28;20183;-68
2023/01/17 05:51:36;;;;;;;7.95;3.58;;;1.40;99.90;;;1.14;100.00;94886.31;5018275;28;20064;-68
2023/01/17 05:54:04;;;;;;;7.22;4.07;;;1.50;99.90;;;1.19;100.00;94889.50;5022146;28;20049;-68
2023/01/17 05:56:32;;;;;;;8.70;3.80;;;1.40;99.90;;;1.28;100.00;94888.19;5018804;28;20062;-68
2023/01/17 05:58:59;;;;;;;11.10;4.40;;;1.50;99.90;;;1.14;100.00;94889.72;5017589;28;20049;-68
2023/01/17 06:01:27;;;;;;;7.43;3.90;;;1.50;99.90;;;1.16;100.00;94890.44;5020152;28;20046;-68
2023/01/17 06:03:54;;;;;;;11.77;4.60;;;1.50;99.90;;;1.21;100.00;94882.59;5017683;28;20069;-68
2023/01/17 06:06:21;;;;;;;10.25;4.60;;;1.50;99.90;;;1.09;100.00;94876.31;5021088;28;20053;-68
2023/01/17 06:08:48;;;;;;;10.48;4.93;;;1.50;99.90;;;1.00;100.00;94884.44;5015943;28;20059;-68
2023/01/17 06:11:16;;;;;;;9.90;4.10;;;1.50;99.90;;;1.09;100.00;94883.16;5018953;28;20050;-68
2023/01/17 06:13:43;;;;;;;9.55;4.57;;;1.50;99.90;;;0.86;100.00;94871.50;5024181;28;20041;-68
2023/01/17 06:16:11;;;;;;;10.60;4.38;;;1.60;99.90;;;0.96;100.00;94881.22;5021550;28;20069;-68
2023/01/17 06:18:38;;;;;;;7.47;4.10;;;1.60;99.90;;;1.00;100.00;94880.19;5015569;28;20072;-68
2023/01/17 06:21:05;;;;;;;10.75;4.45;;;1.60;99.90;;;0.94;100.00;94882.19;5019750;28;20527;-68
2023/01/17 06:23:32;;;;;;;11.88;5.43;;;1.60;99.90;;;0.90;100.00;94884.06;5015601;28;20294;-68
2023/01/17 06:26:02;;;;;;;18.77;7.55;;;1.50;99.90;;;0.80;100.00;94891.34;5015813;28;20046;-68
2023/01/17 06:28:30;;;;;;;17.83;7.65;;;1.50;99.90;;;0.96;100.00;94893.16;5013107;28;20397;-68
2023/01/17 06:30:58;;;;;;;13.45;6.90;;;1.50;99.90;;;1.25;100.00;94892.59;5013399;28;20045;-68
2023/01/17 06:33:25;;;;;;;15.25;6.78;;;1.50;99.90;;;1.39;100.00;94904.69;5013648;28;20050;-68
2023/01/17 06:35:52;;;;;;;11.98;6.63;;;1.60;99.90;;;1.47;100.00;94894.06;5026775;28;20504;-68
2023/01/17 06:38:20;;;;;;;12.40;5.78;;;1.70;99.90;;;1.40;100.00;94895.28;5012209;28;20045;-68
2023/01/17 06:40:47;;;;;;;11.02;5.47;;;1.80;99.90;;;1.20;100.00;94899.63;5022345;28;20461;-68
2023/01/17 06:43:15;;;;;;;11.23;5.05;;;1.80;99.90;;;1.13;100.00;94897.44;5011666;28;20096;-68
2023/01/17 06:45:42;;;;;;;10.60;5.05;;;1.80;99.90;;;1.17;100.00;94899.78;5017571;28;20088;-68
2023/01/17 06:48:09;;;;;;;9.75;4.43;;;1.80;99.90;;;1.41;100.00;94897.72;5010460;28;20058;-68
2023/01/17 06:50:36;;;;;;;9.27;5.05;;;1.90;99.90;;;1.33;100.00;94892.19;5012414;28;20461;-68
2023/01/17 06:53:05;;;;;;;9.38;4.63;;;1.90;99.90;;;1.23;100.00;94886.72;5016365;28;20049;-68
2023/01/17 06:55:33;;;;;;;11.10;5.15;;;1.80;99.90;;;1.08;100.00;94889.19;5015978;28;20045;-68
2023/01/17 06:58:01;;;;;;;10.98;4.38;;;1.80;99.90;;;1.10;100.00;94890.78;5007222;28;20038;-68
2023/01/17 07:00:33;;;;;;;10.45;4.30;;;1.70;99.90;;;1.17;100.00;94881.09;5016393;28;20060;-68
2023/01/17 07:03:28;;;;;;;9.20;4.60;;;1.70;99.90;;;1.22;100.00;94877.38;5011074;28;20069;-68
2023/01/17 07:05:55;;;;;;;9.68;4.43;;;1.70;99.90;;;1.21;100.00;94875.75;5024593;28;20074;-68
2023/01/17 07:08:22;;;;;;;10.48;4.13;;;1.70;99.90;;;1.30;100.00;94876.19;5011096;28;20052;-68
2023/01/17 07:10:49;;;;;;;8.77;3.88;;;1.70;99.90;;;1.37;100.00;94869.84;5011854;28;20049;-68
2023/01/17 07:13:16;;;;;;;16.30;4.53;;;1.70;99.90;;;1.31;100.00;94867.63;5013561;28;20164;-68
2023/01/17 07:15:43;;;;;;;9.95;4.13;;;1.60;99.90;;;1.52;100.00;94863.97;5022295;28;20264;-68
2023/01/17 07:18:10;;;;;;;9.88;3.80;;;1.70;99.90;;;1.49;100.00;94861.59;5022824;28;20049;-68
2023/01/17 07:20:37;;;;;;;9.82;3.95;;;1.70;99.90;;;1.46;100.00;94854.91;5017983;28;20041;-68
2023/01/17 07:23:05;;;;;;;12.43;4.65;;;1.80;99.90;;;1.40;100.00;94857.75;5012398;28;20531;-68
2023/01/17 07:25:32;;;;;;;9.85;4.07;;;1.80;99.90;;;1.34;100.00;94850.38;5015725;28;20133;-68
2023/01/17 07:27:59;;;;;;;8.00;3.45;;;1.80;99.90;;;1.26;100.00;94849.97;5016307;28;20180;-68
2023/01/17 07:30:27;;;;;;;8.43;3.83;;;1.70;99.90;;;1.37;100.00;94849.41;5017214;28;20060;-68
2023/01/17 07:32:54;;;;;;;8.70;4.35;;;1.80;99.90;;;1.29;100.00;94854.91;5015868;28;20793;-68
2023/01/17 07:35:25;;;;;;;8.98;3.92;;;1.70;99.90;;;1.35;100.00;94849.50;5016544;28;20535;-68
2023/01/17 07:37:53;;;;;;;9.75;3.75;;;1.70;99.90;;;1.24;100.00;94855.13;5018720;28;20740;-68
2023/01/17 07:40:21;;;;;;;7.78;4.35;;;1.70;99.90;;;1.08;100.00;94855.97;5021860;28;20056;-68
2023/01/17 07:42:48;;;;;;;9.50;4.15;;;1.60;99.90;;;1.01;100.00;94856.28;4997061;28;20567;-68
2023/01/17 07:45:16;;;;;;;8.98;4.13;;;1.50;99.90;;;0.97;100.00;94843.72;5014912;28;20050;-68
2023/01/17 07:47:43;;;;;;;9.57;3.92;;;1.50;99.90;;;0.97;100.00;94852.22;5017601;28;20436;-68
2023/01/17 07:50:12;;;;;;;7.32;3.58;;;1.40;99.90;;;0.99;100.00;94847.84;5018018;28;20049;-68
2023/01/17 07:52:39;;;;;;;9.25;4.45;;;1.30;99.90;;;0.71;100.00;94850.91;5015264;28;20053;-68
2023/01/17 07:55:07;;;;;;;9.88;4.05;;;1.20;99.90;;;0.86;100.00;94844.25;5022911;28;20129;-68
2023/01/17 07:57:34;;;;;;;11.30;3.95;;;1.10;99.90;;;0.99;100.00;94847.84;5017889;28;20415;-68
2023/01/17 08:00:03;;;;;;;9.50;4.07;;;1.10;99.90;;;1.02;100.00;94850.25;5021327;28;20046;-69
2023/01/17 08:02:30;;;;;;;8.52;3.45;;;1.00;99.90;;;1.01;100.00;94842.69;5017972;28;20046;-68
2023/01/17 08:04:57;;;;;;;10.15;4.07;;;1.00;99.90;;;0.90;100.00;94834.72;5015789;28;20053;-68
2023/01/17 08:07:24;;;;;;;9.23;3.50;;;1.00;99.90;;;0.94;100.00;94836.22;5018254;28;20057;-68
2023/01/17 08:09:50;;;;;;;9.45;4.00;;;1.00;99.90;;;0.91;100.00;94831.25;5014878;28;20054;-68
2023/01/17 08:12:17;;;;;;;6.57;2.72;;;1.00;99.90;;;0.90;100.00;94827.06;5015504;28;20057;-68
2023/01/17 08:14:44;;;;;;;7.57;3.55;;;1.10;99.90;;;0.76;100.00;94822.63;5003821;28;20183;-68
2023/01/17 08:17:15;;;;;;;9.38;3.03;;;1.20;99.90;;;0.81;100.00;94825.75;5021351;28;20076;-68
2023/01/17 08:19:42;;;;;;;8.07;2.83;;;1.10;99.90;;;0.71;100.00;94820.28;5018845;28;20439;-68
2023/01/17 08:22:11;;;;;;;8.30;3.58;;;1.20;99.90;;;0.73;100.00;94818.50;5023057;28;20280;-68
2023/01/17 08:24:38;;;;;;;9.25;3.47;;;1.10;99.90;;;0.97;100.00;94820.75;5014521;28;20140;-68
2023/01/17 08:27:05;;;;;;;9.18;4.25;;;1.20;99.90;;;0.76;100.00;94837.94;5016425;28;20050;-68
2023/01/17 08:29:32;;;;;;;9.38;4.40;;;1.20;99.90;;;0.82;100.00;94830.81;5018225;28;21571;-68
2023/01/17 08:31:59;;;;;;;12.38;5.85;;;1.20;99.90;;;1.11;100.00;94825.16;5015230;28;20049;-69
2023/01/17 08:34:26;;;;;;;10.20;4.82;;;1.30;99.90;;;1.12;100.00;94825.09;5014939;28;20497;-68
2023/01/17 08:36:53;;;;;;;13.13;6.25;;;1.50;99.90;;;1.23;100.00;94827.94;5015472;28;20124;-68
2023/01/17 08:39:20;;;;;;;12.27;5.30;;;1.60;99.90;;;1.13;100.00;94829.28;5000838;28;20060;-68
2023/01/17 08:41:48;;;;;;;17.90;8.60;;;1.70;99.90;;;0.86;100.00;94839.13;5020287;28;20045;-68
2023/01/17 08:44:15;;;;;;;14.55;8.20;;;1.80;99.90;;;1.08;100.00;94836.38;5018181;28;20057;-68
2023/01/17 08:46:43;;;;;;;17.95;8.50;;;1.80;99.90;;;1.22;100.00;94833.94;5027555;28;20061;-68
2023/01/17 08:49:11;;;;;;;16.88;6.38;;;1.90;99.90;;;1.25;100.00;94838.94;5021701;28;20115;-68
2023/01/17 08:51:38;;;;;;;14.68;7.15;;;1.90;99.90;;;0.93;100.00;94837.09;5017779;28;20107;-68
2023/01/17 08:54:05;;;;;;;25.60;13.18;;;2.00;99.90;;;0.75;100.00;94849.03;5018236;28;20050;-68
2023/01/17 08:56:32;;;;;;;19.00;10.13;;;2.00;99.90;;;0.87;100.00;94850.16;5028666;28;20150;-68
2023/01/17 08:59:00;;;;;;;14.05;7.53;;;2.00;99.90;;;1.37;100.00;94842.59;5019671;28;20410;-68
2023/01/17 09:01:27;;;;;;;13.18;5.90;;;2.00;99.90;;;1.66;100.00;94843.63;5024600;28;20045;-68
2023/01/17 09:03:54;;;;;;;11.00;4.68;;;2.20;99.90;;;1.53;100.00;94842.66;5023831;28;20045;-68
2023/01/17 09:06:21;;;;;;;8.77;3.83;;;2.30;99.90;;;1.39;100.00;94834.81;5021318;28;20046;-68
2023/01/17 09:08:51;;;;;;;11.38;5.88;;;2.30;99.90;;;1.63;100.00;94836.13;5026144;28;20080;-68
2023/01/17 09:11:18;;;;;;;22.33;11.55;;;2.30;99.90;;;1.72;100.00;94834.03;5019956;28;20520;-68
2023/01/17 09:13:45;;;;;;;17.20;9.30;;;2.40;99.90;;;1.88;100.00;94830.56;5016186;28;20530;-68
2023/01/17 09:16:12;;;;;;;13.07;6.60;;;2.50;99.90;;;2.01;100.00;94830.78;5024807;28;20143;-68
2023/01/17 09:18:38;;;;;;;10.73;5.35;;;2.70;99.90;;;2.43;100.00;94839.59;5021878;28;20120;-68
2023/01/17 09:21:19;;;;;;;8.20;4.30;;;2.90;99.90;;;2.42;100.00;94837.16;5025149;28;20050;-68
2023/01/17 09:23:46;;;;;;;10.95;4.22;;;3.00;99.90;;;2.54;100.00;94828.78;5008586;28;20051;-68
2023/01/17 09:26:23;;;;;;;8.43;3.97;;;3.20;99.90;;;2.67;100.00;94822.06;5024695;28;20558;-68
2023/01/17 09:28:51;;;;;;;7.97;4.07;;;3.20;99.90;;;2.54;100.00;94821.09;5017979;28;20050;-69
2023/01/17 09:31:20;;;;;;;8.18;4.05;;;3.30;99.90;;;2.67;100.00;94824.63;5022659;28;20053;-68
2023/01/17 09:33:49;;;;;;;13.27;4.70;;;3.30;99.90;;;2.37;100.00;94831.41;5023044;28;20049;-68
2023/01/17 09:36:16;;;;;;;8.15;3.55;;;3.20;99.90;;;2.22;100.00;94826.22;5018241;28;20045;-68
2023/01/17 09:38:43;;;;;;;11.93;3.75;;;3.00;99.90;;;2.48;100.00;94822.25;5018928;28;20092;-69
2023/01/17 09:41:32;;;;;;;7.88;3.03;;;3.10;99.90;;;2.61;100.00;94829.28;5017218;28;20054;-68
2023/01/17 09:44:04;;;;;;;8.35;3.40;;;3.20;99.90;;;2.42;100.00;94824.34;5015037;28;20061;-68
2023/01/17 09:46:38;;;;;;;8.90;3.28;;;3.20;99.90;;;2.49;100.00;94823.09;5015226;28;20057;-68
2023/01/17 09:49:30;;;;;;;8.00;2.90;;;3.20;99.90;;;2.75;100.00;94818.25;5018060;28;20506;-68
2023/01/17 09:51:57;;;;;;;6.88;2.83;;;;;;;2.81;100.00;94825.59;5016386;28;20077;-68
2023/01/17 09:54:33;;;;;;;8.30;2.97;;;3.40;99.90;;;2.93;100.00;94824.91;5020183;28;20132;-69
2023/01/17 09:57:24;;;;;;;7.88;3.25;;;3.50;99.90;;;2.49;100.00;94826.47;5028917;28;20067;-68
2023/01/17 10:00:11;;;;;;;10.02;2.80;;;3.30;99.90;;;2.53;100.00;94819.44;5025781;28;20427;-68
2023/01/17 10:02:59;;;;;;;8.70;2.88;;;3.50;99.90;;;2.67;100.00;94816.13;5020786;28;20140;-68
2023/01/17 10:06:16;;;;;;;6.55;2.55;;;3.50;99.90;;;2.84;100.00;94822.84;5021336;28;20416;-68
2023/01/17 10:08:54;;;;;;;4.05;1.77;;;3.50;99.90;;;3.13;100.00;94813.53;5012063;28;20081;-68
2023/01/17 10:11:35;;;;;;;6.40;2.55;;;3.80;99.90;;;2.71;100.00;94818.44;5018880;28;20108;-68
2023/01/17 10:14:13;;;;;;;8.18;2.92;;;3.60;99.90;;;2.50;100.00;94812.75;5018423;28;20056;-69
2023/01/17 10:17:12;;;;;;;7.90;2.20;;;3.50;99.90;;;2.64;100.00;94822.22;5015625;28;20473;-68
2023/01/17 10:20:03;;;;;;;5.10;1.60;;;3.50;99.90;;;3.09;100.00;94804.34;5013264;28;20045;-68
2023/01/17 10:22:42;;;;;;;5.13;1.75;;;3.80;99.90;;;2.99;100.00;94796.38;5020884;28;20065;-68
2023/01/17 10:25:27;;;;;;;5.75;2.10;;;4.00;99.90;;;3.12;100.00;94792.19;5014195;28;20119;-68
2023/01/17 10:28:02;;;;;;;7.55;2.83;;;4.00;99.90;;;2.78;100.00;94795.03;5023344;28;20145;-68
2023/01/17 10:30:36;;;;;;;8.85;2.20;;;3.80;99.90;;;2.75;100.00;94790.91;5026280;28;20715;-68
2023/01/17 10:33:28;;;;;;;7.57;2.33;;;3.70;99.90;;;2.90;100.00;94779.78;5023190;28;20073;-68
2023/01/17 10:35:58;;;;;;;4.78;1.77;;;3.70;99.90;;;3.18;100.00;94778.19;5021662;28;20100;-68
2023/01/17 10:38:35;;;;;;;6.68;1.35;;;3.90;99.90;;;3.34;100.00;94781.50;5025943;28;20053;-68
2023/01/17 10:41:28;;;;;;;4.65;1.73;;;4.10;99.90;;;3.54;100.00;94774.38;5015431;28;20088;-68
2023/01/17 10:44:40;;;;;;;5.20;1.55;;;4.20;99.90;;;3.49;100.00;94776.38;5015303;28;20125;-68
2023/01/17 10:47:09;;;;;;;5.07;1.23;;;4.20;99.90;;;3.49;100.00;94763.53;5015455;28;20045;-68
2023/01/17 10:49:42;;;;;;;5.38;1.80;;;4.30;99.90;;;3.29;100.00;94762.19;5017389;28;20069;-68
2023/01/17 10:52:42;;;;;;;4.53;1.70;;;4.20;99.90;;;3.32;100.00;94756.88;5021092;28;20484;-68
2023/01/17 10:55:26;;;;;;;7.30;1.67;;;4.20;99.90;;;3.29;100.00;94757.88;5023119;28;20042;-68
2023/01/17 10:57:54;;;;;;;6.53;1.75;;;4.20;99.90;;;3.29;100.00;94752.75;5011518;28;20184;-69
2023/01/17 11:00:59;;;;;;;5.72;1.90;;;4.20;99.90;;;3.19;100.00;94755.94;5015439;28;20508;-68
2023/01/17 11:03:27;;;;;;;4.97;1.75;;;4.10;99.90;;;3.24;100.00;94744.53;5007320;28;20111;-68
2023/01/17 11:06:19;;;;;;;4.15;1.20;;;4.20;99.90;;;3.78;100.00;94743.84;5012330;28;20052;-68
2023/01/17 11:09:04;;;;;;;4.60;1.47;;;4.40;99.90;;;3.49;100.00;94746.44;5028955;28;20074;-68
2023/01/17 11:11:32;;;;;;;;;;;4.50;99.90;;;3.60;100.00;94750.09;5012674;28;20581;-68
2023/01/17 11:14:06;;;;;;;5.88;1.63;;;4.50;99.90;;;3.49;100.00;94750.72;5013414;28;19925;-68
2023/01/17 11:16:34;;;;;;;5.97;1.85;;;4.40;99.90;;;3.64;100.00;94747.25;5013740;28;20097;-68
2023/01/17 11:19:25;;;;;;;5.90;1.73;;;4.50;99.90;;;3.38;100.00;94750.56;5015617;28;20043;-68
2023/01/17 11:22:00;;;;;;;5.43;1.50;;;4.40;99.90;;;3.67;100.00;94743.66;5011851;28;20092;-68
2023/01/17 11:24:37;;;;;;;7.57;1.90;;;4.40;99.90;;;3.53;100.00;94747.06;5016074;28;20057;-68
2023/01/17 11:27:06;;;;;;;3.72;1.55;;;4.30;99.90;;;3.31;100.00;94738.09;5011218;28;20574;-68
2023/01/17 11:29:37;;;;;;;6.40;1.77;;;4.20;99.90;;;3.59;100.00;94730.50;5011506;28;20048;-68
2023/01/17 11:32:31;;;;;;;8.95;1.80;;;4.30;99.90;;;3.25;100.00;94735.91;5015575;28;20104;-68
2023/01/17 11:35:06;;;;;;;6.25;1.60;;;4.20;99.90;;;3.40;100.00;94728.19;5015292;28;20124;-68
2023/01/17 11:37:35;;;;;;;4.93;1.13;;;4.30;99.90;;;3.64;100.00;94726.72;5014395;28;20057;-69
2023/01/17 11:40:21;;;;;;;3.58;1.50;;;4.40;99.90;;;3.35;100.00;94713.94;5013436;28;20119;-69
2023/01/17 11:43:27;;;;;;;3.95;1.27;;;4.40;99.90;;;3.43;100.00;94708.34;5006897;28;20473;-68
2023/01/17 11:46:16;;;;;;;5.45;1.17;;;4.30;99.90;;;3.83;100.00;94703.34;5023187;28;20235;-68
2023/01/17 11:48:54;;;;;;;8.88;1.60;;;4.40;99.90;;;3.76;100.00;94694.38;5022662;28;20152;-68
2023/01/17 11:51:30;;;;;;;4.43;1.48;;;4.40;99.90;;;3.67;100.00;94688.09;5016275;28;20141;-68
2023/01/17 11:54:24;;;;;;;3.13;1.13;;;4.60;99.90;;;3.70;100.00;94697.31;5021470;28;20056;-68
2023/01/17 11:57:00;;;;;;;5.00;1.30;;;4.60;99.90;;;3.61;100.00;94679.94;5014515;28;20042;-68
2023/01/17 11:59:36;;;;;;;3.38;1.15;;;4.60;99.90;;;3.68;100.00;94679.44;5019502;28;20056;-68
2023/01/17 12:05:28;;;;;;;6.10;1.30;;;4.80;99.90;;;4.04;100.00;94662.69;4984105;28;21529;-82
2023/01/17 12:08:42;;;;;;;4.65;1.10;;;4.90;99.90;;;4.09;100.00;94663.22;4982666;28;20101;-81
2023/01/17 12:15:10;;;;;;;4.50;1.17;;;5.00;99.90;;;4.08;100.00;94650.47;4934231;28;20078;-83
2023/01/17 12:18:15;;;;;;;4.72;1.27;;;5.00;99.90;;;4.27;100.00;94655.25;4991465;28;20106;-83
2023/01/17 12:21:19;;;;;;;3.30;1.00;;;5.20;99.90;;;4.45;100.00;94640.38;5003127;28;20042;-84
2023/01/17 12:24:14;;;;;;;4.82;1.23;;;5.40;99.90;;;4.72;100.00;94638.59;4967525;28;20164;-81
2023/01/17 12:26:57;;;;;;;4.45;1.38;;;5.50;99.90;;;4.76;100.00;94634.84;4983505;28;20046;-81
2023/01/17 12:30:11;;;;;;;3.25;1.10;;;5.50;99.90;;;4.35;100.00;94624.75;4970687;28;20042;-81
2023/01/17 12:33:12;;;;;;;7.73;1.80;;;5.40;99.90;;;3.96;100.00;94619.53;4971739;28;20851;-81
2023/01/17 12:35:57;;;;;;;8.40;2.65;;;5.20;99.90;;;4.11;100.00;94616.91;4964125;28;20153;-81
2023/01/17 12:38:35;;;;;;;4.22;1.40;;;5.00;99.90;;;3.92;100.00;94610.41;4989821;28;20051;-80
2023/01/17 12:41:10;;;;;;;3.33;1.20;;;4.90;99.90;;;4.32;100.00;94617.25;4972970;28;20042;-81
2023/01/17 12:43:40;;;;;;;3.90;1.10;;;5.10;99.90;;;4.53;100.00;94613.25;4965222;28;20050;-81
2023/01/17 12:46:19;;;;;;;4.43;1.10;;;5.30;99.90;;;4.15;100.00;94618.34;4956605;28;20953;-81
2023/01/17 12:48:56;;;;;;;3.70;1.13;;;5.20;99.90;;;4.26;100.00;94621.03;4974870;28;20046;-80
2023/01/17 12:51:33;;;;;;;3.50;0.90;;;5.20;99.90;;;4.34;100.00;94612.84;4957501;28;20129;-81
2023/01/17 12:54:14;;;;;;;2.97;1.10;;;5.20;99.90;;;4.13;100.00;94623.59;4959539;28;20142;-81
2023/01/17 12:56:53;;;;;;;2.85;0.90;;;5.10;99.90;;;4.17;100.00;94619.91;4973241;28;20097;-80
2023/01/17 12:59:43;;;;;;;3.22;0.90;;;5.00;99.90;;;4.14;100.00;94614.97;4989325;28;20431;-80
2023/01/17 13:02:53;;;;;;;2.05;0.73;;;5.20;99.90;;;4.12;100.00;94606.53;4970072;28;20054;-80
2023/01/17 13:05:40;;;;;;;2.95;0.98;;;5.10;99.90;;;3.90;100.00;94606.25;4977301;28;20059;-81
2023/01/17 13:08:41;;;;;;;4.93;1.35;;;4.90;99.90;;;3.67;100.00;94595.75;4972391;28;20065;-81
2023/01/17 13:11:32;;;;;;;4.10;1.38;;;4.70;99.90;;;3.83;100.00;94590.47;4971773;28;20055;-81
2023/01/17 13:14:01;;;;;;;4.90;1.13;;;4.70;99.90;;;3.49;100.00;94587.47;4972107;28;20094;-80
2023/01/17 13:16:56;;;;;;;6.43;1.52;;;4.50;99.90;;;3.47;100.00;94584.16;4977935;28;20403;-80
2023/01/17 13:19:49;;;;;;;4.85;1.20;;;4.40;99.90;;;3.47;100.00;94578.22;4976138;28;20058;-83
2023/01/17 13:22:19;;;;;;;2.42;0.73;;;4.40;99.90;;;3.48;100.00;94582.41;4977957;28;20063;-83
2023/01/17 13:25:30;;;;;;;6.40;1.40;;;4.40;99.90;;;3.26;100.00;94573.50;4975085;28;20133;-83
2023/01/17 13:28:39;;;;;;;3.55;1.05;;;4.20;99.90;;;3.44;100.00;94568.94;4974627;28;20157;-82
2023/01/17 13:31:58;;;;;;;5.28;1.02;;;4.30;99.90;;;3.32;100.00;94570.53;4958844;28;20054;-82
2023/01/17 13:35:15;;;;;;;4.75;1.40;;;4.10;99.90;;;3.38;100.00;94571.91;4986357;28;20053;-82
2023/01/17 13:38:21;;;;;;;4.50;1.85;;;4.10;99.90;;;3.20;100.00;94561.06;4959451;28;20076;-82
2023/01/17 13:40:53;;;;;;;3.33;1.45;;;4.10;99.90;;;3.22;100.00;94561.78;4985270;28;20066;-81
2023/01/17 13:43:25;;;;;;;5.03;1.10;;;4.10;99.90;;;3.43;100.00;94553.69;4988803;28;20105;-82
2023/01/17 13:45:59;;;;;;;4.75;1.10;;;4.10;99.90;;;3.23;100.00;94557.47;4972350;28;20137;-82
2023/01/17 13:48:37;;;;;;;7.45;1.20;;;4.20;99.90;;;2.95;100.00;94556.63;4984483;28;20168;-83
2023/01/17 13:51:09;;;;;;;8.07;1.52;;;3.80;99.90;;;2.96;100.00;94570.25;4974161;28;20661;-81
2023/01/17 13:53:39;;;;;;;2.90;1.10;;;3.70;99.90;;;3.17;100.00;94574.06;4957973;28;20050;-82
2023/01/17 13:56:20;;;;;;;3.53;1.00;;;3.80;99.90;;;3.17;100.00;94576.63;4985537;28;20061;-83
2023/01/17 13:58:49;;;;;;;5.88;1.35;;;3.90;99.90;;;3.39;100.00;94588.94;4993731;28;20043;-82
2023/01/17 14:01:42;;;;;;;5.32;1.30;;;3.90;99.90;;;3.54;100.00;94597.44;4993902;28;20556;-82
2023/01/17 14:04:12;;;;;;;5.10;1.20;;;4.00;99.90;;;3.76;100.00;94596.88;4981356;28;20114;-82
2023/01/17 14:06:47;;;;;;;3.60;1.10;;;4.20;99.90;;;3.60;100.00;94597.03;4964687;28;20054;-82
2023/01/17 14:09:30;;;;;;;5.25;1.15;;;4.20;99.90;;;3.39;100.00;94612.00;4985788;28;20064;-81
2023/01/17 14:12:24;;;;;;;3.47;1.00;;;4.20;99.90;;;3.77;100.00;94614.75;4964652;28;20050;-81
2023/01/17 14:14:55;;;;;;;4.72;1.00;;;4.20;99.90;;;3.73;100.00;94620.97;4983126;28;20074;-82
2023/01/17 14:17:24;;;;;;;3.53;0.80;;;4.30;99.90;;;3.69;100.00;94622.09;4970743;28;20109;-81
2023/01/17 14:20:08;;;;;;;3.00;0.95;;;4.20;99.90;;;3.77;100.00;94622.44;4988042;28;20054;-81
2023/01/17 14:22:45;;;;;;;4.22;1.05;;;4.30;99.90;;;3.72;100.00;94623.66;4984526;28;20083;-81
2023/01/17 14:25:13;;;;;;;2.90;0.98;;;4.30;99.90;;;3.48;100.00;94628.56;4960525;28;20050;-82
2023/01/17 14:27:47;;;;;;;3.75;0.98;;;4.10;99.90;;;3.52;100.00;94630.03;4985321;28;20419;-81
2023/01/17 14:30:35;;;;;;;5.97;1.52;;;4.10;99.90;;;3.40;100.00;94631.63;4972215;28;20059;-82
2023/01/17 14:33:40;;;;;;;4.10;1.30;;;4.00;99.90;;;3.34;100.00;94626.84;4977093;28;20089;-82
2023/01/17 14:36:21;;;;;;;5.18;1.55;;;3.90;99.90;;;3.13;100.00;94634.13;4970777;28;20088;-83
2023/01/17 14:38:51;;;;;;;4.25;1.50;;;3.80;99.90;;;2.95;100.00;94641.16;4973981;28;20081;-81
2023/01/17 14:41:28;;;;;;;3.35;1.25;;;3.70;99.90;;;3.11;100.00;94639.31;4992187;28;20403;-82
2023/01/17 14:43:58;;;;;;;5.35;1.85;;;3.70;99.90;;;3.28;100.00;94633.16;4979560;28;20117;-82
2023/01/17 14:46:31;;;;;;;28.90;18.35;;;3.70;99.90;;;3.04;100.00;94635.50;4961225;28;20583;-82
2023/01/17 14:49:03;;;;;;;102.78;68.35;;;3.60;99.90;;;2.98;100.00;94635.84;4952380;28;20065;-82
2023/01/17 14:51:35;;;;;;;8.75;3.38;;;3.50;99.90;;;2.77;100.00;94637.13;4975909;28;20050;-82
2023/01/17 14:54:20;;;;;;;5.45;1.77;;;3.40;99.90;;;2.70;100.00;94639.22;4974170;28;20062;-81
2023/01/17 14:56:49;;;;;;;6.38;1.60;;;;;;;2.85;100.00;94646.03;4987396;28;20051;-82
2023/01/17 14:59:20;;;;;;;2.50;0.80;;;3.30;99.90;;;2.78;100.00;94644.72;4974728;28;20737;-81
2023/01/17 15:01:54;;;;;;;3.33;1.15;;;3.30;99.90;;;2.76;100.00;94651.69;4976541;28;20074;-81
2023/01/17 15:04:37;;;;;;;4.07;1.10;;;3.30;99.90;;;2.73;100.00;94654.41;4979882;28;20082;-81
2023/01/17 15:07:14;;;;;;;5.67;1.20;;;3.30;99.90;;;2.54;100.00;94648.72;4975759;28;20062;-80
2023/01/17 15:09:45;;;;;;;37.80;22.85;;;3.20;99.90;;;2.73;100.00;94650.09;4969387;28;20314;-81
2023/01/17 15:12:13;;;;;;;17.40;9.75;;;3.20;99.90;;;2.69;100.00;94648.66;4984390;28;20077;-83